sensor_id;sensor_type;location;lat;lon;timestamp;P1;durP1;ratioP1;P2;durP2;ratioP2
2326;SDS011;1174;51.588;7.328;2022-08-01T00:02:05;12.27;;;9.03;;
2326;SDS011;1174;51.588;7.328;2022-08-01T00:04:32;15.20;;;8.90;;
2326;SDS011;1174;51.588;7.328;2022-08-01T00:07:00;12.43;;;9.40;;
2326;SDS011;1174;51.588;7.328;2022-08-01T00:09:27;24.97;;;11.77;;
2326;SDS011;1174;51.588;7.328;2022-08-01T00:11:54;19.03;;;10.37;;
2326;SDS011;1174;51.588;7.328;2022-08-01T00:14:20;14.60;;;10.90;;
2326;SDS011;1174;51.588;7.328;2022-08-01T00:16:47;15.30;;;10.40;;
2326;SDS011;1174;51.588;7.328;2022-08-01T00:19:14;18.67;;;11.93;;
2326;SDS011;1174;51.588;7.328;2022-08-01T00:21:41;19.87;;;10.77;;
2326;SDS011;1174;51.588;7.328;2022-08-01T00:24:10;16.70;;;13.07;;
2326;SDS011;1174;51.588;7.328;2022-08-01T00:26:37;21.00;;;11.20;;
2326;SDS011;1174;51.588;7.328;2022-08-01T00:29:03;17.23;;;12.63;;
2326;SDS011;1174;51.588;7.328;2022-08-01T00:31:30;14.17;;;10.53;;
2326;SDS011;1174;51.588;7.328;2022-08-01T00:33:57;21.80;;;13.30;;
2326;SDS011;1174;51.588;7.328;2022-08-01T00:36:24;19.50;;;11.40;;
2326;SDS011;1174;51.588;7.328;2022-08-01T00:38:51;19.37;;;11.40;;
2326;SDS011;1174;51.588;7.328;2022-08-01T00:41:19;19.87;;;12.70;;
2326;SDS011;1174;51.588;7.328;2022-08-01T00:43:46;17.73;;;10.90;;
2326;SDS011;1174;51.588;7.328;2022-08-01T00:46:12;15.97;;;11.30;;
2326;SDS011;1174;51.588;7.328;2022-08-01T00:48:39;19.13;;;11.57;;
2326;SDS011;1174;51.588;7.328;2022-08-01T00:51:06;22.03;;;13.70;;
2326;SDS011;1174;51.588;7.328;2022-08-01T00:53:34;13.90;;;9.50;;
2326;SDS011;1174;51.588;7.328;2022-08-01T00:56:01;20.93;;;11.50;;
2326;SDS011;1174;51.588;7.328;2022-08-01T00:58:30;16.30;;;11.53;;
2326;SDS011;1174;51.588;7.328;2022-08-01T01:00:57;16.77;;;10.00;;
2326;SDS011;1174;51.588;7.328;2022-08-01T01:03:24;22.73;;;12.53;;
2326;SDS011;1174;51.588;7.328;2022-08-01T01:05:54;17.73;;;13.70;;
2326;SDS011;1174;51.588;7.328;2022-08-01T01:08:30;18.20;;;10.60;;
2326;SDS011;1174;51.588;7.328;2022-08-01T01:11:03;18.47;;;11.43;;
2326;SDS011;1174;51.588;7.328;2022-08-01T01:13:37;21.60;;;11.60;;
2326;SDS011;1174;51.588;7.328;2022-08-01T01:16:08;21.00;;;11.73;;
2326;SDS011;1174;51.588;7.328;2022-08-01T01:18:41;20.73;;;12.43;;
2326;SDS011;1174;51.588;7.328;2022-08-01T01:21:15;13.67;;;10.30;;
2326;SDS011;1174;51.588;7.328;2022-08-01T01:24:10;17.20;;;12.40;;
2326;SDS011;1174;51.588;7.328;2022-08-01T01:26:43;15.83;;;11.60;;
2326;SDS011;1174;51.588;7.328;2022-08-01T01:29:17;24.40;;;13.00;;
2326;SDS011;1174;51.588;7.328;2022-08-01T01:31:51;16.53;;;13.23;;
2326;SDS011;1174;51.588;7.328;2022-08-01T01:34:21;20.07;;;13.60;;
2326;SDS011;1174;51.588;7.328;2022-08-01T01:36:50;21.17;;;13.97;;
2326;SDS011;1174;51.588;7.328;2022-08-01T01:39:20;20.57;;;13.20;;
2326;SDS011;1174;51.588;7.328;2022-08-01T01:41:50;19.20;;;10.47;;
2326;SDS011;1174;51.588;7.328;2022-08-01T01:44:21;20.27;;;11.20;;
2326;SDS011;1174;51.588;7.328;2022-08-01T01:46:48;22.63;;;13.07;;
2326;SDS011;1174;51.588;7.328;2022-08-01T01:49:18;17.03;;;12.27;;
2326;SDS011;1174;51.588;7.328;2022-08-01T01:51:47;21.50;;;13.80;;
2326;SDS011;1174;51.588;7.328;2022-08-01T01:54:16;20.10;;;13.10;;
2326;SDS011;1174;51.588;7.328;2022-08-01T01:56:44;22.80;;;13.47;;
2326;SDS011;1174;51.588;7.328;2022-08-01T01:59:18;25.10;;;15.10;;
2326;SDS011;1174;51.588;7.328;2022-08-01T02:01:51;22.27;;;12.63;;
2326;SDS011;1174;51.588;7.328;2022-08-01T02:04:21;18.53;;;11.90;;
2326;SDS011;1174;51.588;7.328;2022-08-01T02:06:50;27.47;;;14.83;;
2326;SDS011;1174;51.588;7.328;2022-08-01T02:09:19;28.90;;;13.77;;
2326;SDS011;1174;51.588;7.328;2022-08-01T02:11:47;27.70;;;13.50;;
2326;SDS011;1174;51.588;7.328;2022-08-01T02:14:15;17.07;;;10.77;;
2326;SDS011;1174;51.588;7.328;2022-08-01T02:16:46;19.80;;;12.50;;
2326;SDS011;1174;51.588;7.328;2022-08-01T02:19:14;21.60;;;12.07;;
2326;SDS011;1174;51.588;7.328;2022-08-01T02:21:44;21.13;;;11.70;;
2326;SDS011;1174;51.588;7.328;2022-08-01T02:24:22;16.80;;;10.00;;
2326;SDS011;1174;51.588;7.328;2022-08-01T02:26:55;16.70;;;11.40;;
2326;SDS011;1174;51.588;7.328;2022-08-01T02:29:27;17.67;;;10.07;;
2326;SDS011;1174;51.588;7.328;2022-08-01T02:32:00;20.70;;;12.63;;
2326;SDS011;1174;51.588;7.328;2022-08-01T02:34:28;17.60;;;11.23;;
2326;SDS011;1174;51.588;7.328;2022-08-01T02:36:57;15.13;;;10.07;;
2326;SDS011;1174;51.588;7.328;2022-08-01T02:39:27;18.90;;;9.77;;
2326;SDS011;1174;51.588;7.328;2022-08-01T02:41:57;12.60;;;10.40;;
2326;SDS011;1174;51.588;7.328;2022-08-01T02:44:30;15.80;;;10.10;;
2326;SDS011;1174;51.588;7.328;2022-08-01T02:47:02;17.20;;;10.70;;
2326;SDS011;1174;51.588;7.328;2022-08-01T02:49:31;19.57;;;11.90;;
2326;SDS011;1174;51.588;7.328;2022-08-01T02:51:59;16.40;;;10.73;;
2326;SDS011;1174;51.588;7.328;2022-08-01T02:54:29;20.93;;;13.40;;
2326;SDS011;1174;51.588;7.328;2022-08-01T02:56:58;16.53;;;9.73;;
2326;SDS011;1174;51.588;7.328;2022-08-01T02:59:28;18.00;;;11.03;;
2326;SDS011;1174;51.588;7.328;2022-08-01T03:01:58;17.00;;;9.73;;
2326;SDS011;1174;51.588;7.328;2022-08-01T03:04:29;14.07;;;9.83;;
2326;SDS011;1174;51.588;7.328;2022-08-01T03:06:57;21.20;;;10.37;;
2326;SDS011;1174;51.588;7.328;2022-08-01T03:09:26;14.07;;;9.07;;
2326;SDS011;1174;51.588;7.328;2022-08-01T03:11:55;14.33;;;8.27;;
2326;SDS011;1174;51.588;7.328;2022-08-01T03:14:25;15.70;;;10.20;;
2326;SDS011;1174;51.588;7.328;2022-08-01T03:16:53;15.73;;;10.53;;
2326;SDS011;1174;51.588;7.328;2022-08-01T03:19:22;16.33;;;8.87;;
2326;SDS011;1174;51.588;7.328;2022-08-01T03:21:53;14.37;;;8.47;;
2326;SDS011;1174;51.588;7.328;2022-08-01T03:24:23;17.53;;;8.90;;
2326;SDS011;1174;51.588;7.328;2022-08-01T03:26:51;14.90;;;9.87;;
2326;SDS011;1174;51.588;7.328;2022-08-01T03:29:21;14.13;;;8.60;;
2326;SDS011;1174;51.588;7.328;2022-08-01T03:31:50;17.37;;;10.73;;
2326;SDS011;1174;51.588;7.328;2022-08-01T03:34:17;17.47;;;9.70;;
2326;SDS011;1174;51.588;7.328;2022-08-01T03:36:47;16.43;;;10.33;;
2326;SDS011;1174;51.588;7.328;2022-08-01T03:39:17;19.40;;;9.20;;
2326;SDS011;1174;51.588;7.328;2022-08-01T03:41:50;14.10;;;9.20;;
2326;SDS011;1174;51.588;7.328;2022-08-01T03:44:22;15.63;;;8.97;;
2326;SDS011;1174;51.588;7.328;2022-08-01T03:46:54;20.10;;;11.43;;
2326;SDS011;1174;51.588;7.328;2022-08-01T03:49:27;15.27;;;9.30;;
2326;SDS011;1174;51.588;7.328;2022-08-01T03:51:56;15.50;;;9.33;;
2326;SDS011;1174;51.588;7.328;2022-08-01T03:54:29;16.67;;;9.90;;
2326;SDS011;1174;51.588;7.328;2022-08-01T03:56:58;19.40;;;10.60;;
2326;SDS011;1174;51.588;7.328;2022-08-01T03:59:26;23.63;;;10.67;;
2326;SDS011;1174;51.588;7.328;2022-08-01T04:01:54;14.90;;;10.03;;
2326;SDS011;1174;51.588;7.328;2022-08-01T04:04:22;12.40;;;7.93;;
2326;SDS011;1174;51.588;7.328;2022-08-01T04:06:50;15.43;;;8.40;;
2326;SDS011;1174;51.588;7.328;2022-08-01T04:09:19;11.80;;;8.60;;
2326;SDS011;1174;51.588;7.328;2022-08-01T04:11:47;12.30;;;6.80;;
2326;SDS011;1174;51.588;7.328;2022-08-01T04:14:14;14.43;;;7.80;;
2326;SDS011;1174;51.588;7.328;2022-08-01T04:16:41;13.93;;;7.63;;
2326;SDS011;1174;51.588;7.328;2022-08-01T04:19:08;10.63;;;5.93;;
2326;SDS011;1174;51.588;7.328;2022-08-01T04:21:35;14.40;;;7.80;;
2326;SDS011;1174;51.588;7.328;2022-08-01T04:24:03;12.87;;;7.47;;
2326;SDS011;1174;51.588;7.328;2022-08-01T04:26:34;12.87;;;8.23;;
2326;SDS011;1174;51.588;7.328;2022-08-01T04:29:03;13.63;;;7.70;;
2326;SDS011;1174;51.588;7.328;2022-08-01T04:31:32;14.07;;;8.20;;
2326;SDS011;1174;51.588;7.328;2022-08-01T04:34:01;15.70;;;7.10;;
2326;SDS011;1174;51.588;7.328;2022-08-01T04:36:30;14.10;;;8.77;;
2326;SDS011;1174;51.588;7.328;2022-08-01T04:39:01;12.80;;;7.77;;
2326;SDS011;1174;51.588;7.328;2022-08-01T04:41:30;12.23;;;7.80;;
2326;SDS011;1174;51.588;7.328;2022-08-01T04:43:57;9.53;;;6.53;;
2326;SDS011;1174;51.588;7.328;2022-08-01T04:46:27;15.20;;;6.87;;
2326;SDS011;1174;51.588;7.328;2022-08-01T04:48:54;11.70;;;6.93;;
2326;SDS011;1174;51.588;7.328;2022-08-01T04:51:22;12.37;;;8.40;;
2326;SDS011;1174;51.588;7.328;2022-08-01T04:53:49;13.90;;;7.13;;
2326;SDS011;1174;51.588;7.328;2022-08-01T04:56:17;10.37;;;6.93;;
2326;SDS011;1174;51.588;7.328;2022-08-01T04:58:44;11.23;;;7.20;;
2326;SDS011;1174;51.588;7.328;2022-08-01T05:01:11;11.83;;;7.70;;
2326;SDS011;1174;51.588;7.328;2022-08-01T05:03:40;16.00;;;7.70;;
2326;SDS011;1174;51.588;7.328;2022-08-01T05:06:06;12.10;;;8.90;;
2326;SDS011;1174;51.588;7.328;2022-08-01T05:08:33;11.83;;;8.43;;
2326;SDS011;1174;51.588;7.328;2022-08-01T05:11:01;11.37;;;8.53;;
2326;SDS011;1174;51.588;7.328;2022-08-01T05:13:27;16.30;;;9.43;;
2326;SDS011;1174;51.588;7.328;2022-08-01T05:15:54;11.07;;;8.00;;
2326;SDS011;1174;51.588;7.328;2022-08-01T05:18:21;13.13;;;7.53;;
2326;SDS011;1174;51.588;7.328;2022-08-01T05:20:49;14.00;;;7.73;;
2326;SDS011;1174;51.588;7.328;2022-08-01T05:23:16;15.00;;;9.13;;
2326;SDS011;1174;51.588;7.328;2022-08-01T05:25:44;12.20;;;8.17;;
2326;SDS011;1174;51.588;7.328;2022-08-01T05:28:10;11.87;;;7.63;;
2326;SDS011;1174;51.588;7.328;2022-08-01T05:30:38;9.90;;;6.90;;
2326;SDS011;1174;51.588;7.328;2022-08-01T05:33:05;20.20;;;8.70;;
2326;SDS011;1174;51.588;7.328;2022-08-01T05:35:32;9.87;;;5.83;;
2326;SDS011;1174;51.588;7.328;2022-08-01T05:38:00;10.40;;;6.57;;
2326;SDS011;1174;51.588;7.328;2022-08-01T05:40:27;9.67;;;5.43;;
2326;SDS011;1174;51.588;7.328;2022-08-01T05:42:53;10.67;;;6.30;;
2326;SDS011;1174;51.588;7.328;2022-08-01T05:45:20;10.53;;;7.10;;
2326;SDS011;1174;51.588;7.328;2022-08-01T05:47:47;8.97;;;5.87;;
2326;SDS011;1174;51.588;7.328;2022-08-01T05:50:14;9.30;;;6.60;;
2326;SDS011;1174;51.588;7.328;2022-08-01T05:52:41;13.10;;;7.17;;
2326;SDS011;1174;51.588;7.328;2022-08-01T05:55:09;12.90;;;5.97;;
2326;SDS011;1174;51.588;7.328;2022-08-01T05:57:36;11.00;;;5.97;;
2326;SDS011;1174;51.588;7.328;2022-08-01T06:00:03;10.27;;;5.90;;
2326;SDS011;1174;51.588;7.328;2022-08-01T06:02:31;14.20;;;7.17;;
2326;SDS011;1174;51.588;7.328;2022-08-01T06:04:58;11.23;;;7.77;;
2326;SDS011;1174;51.588;7.328;2022-08-01T06:07:24;17.13;;;7.77;;
2326;SDS011;1174;51.588;7.328;2022-08-01T06:09:51;13.23;;;9.03;;
2326;SDS011;1174;51.588;7.328;2022-08-01T06:12:19;10.80;;;6.80;;
2326;SDS011;1174;51.588;7.328;2022-08-01T06:14:46;13.90;;;7.30;;
2326;SDS011;1174;51.588;7.328;2022-08-01T06:17:13;11.07;;;6.67;;
2326;SDS011;1174;51.588;7.328;2022-08-01T06:19:40;9.57;;;6.40;;
2326;SDS011;1174;51.588;7.328;2022-08-01T06:22:06;11.87;;;7.47;;
2326;SDS011;1174;51.588;7.328;2022-08-01T06:24:33;10.77;;;6.70;;
2326;SDS011;1174;51.588;7.328;2022-08-01T06:27:00;10.30;;;6.77;;
2326;SDS011;1174;51.588;7.328;2022-08-01T06:29:31;8.40;;;5.57;;
2326;SDS011;1174;51.588;7.328;2022-08-01T06:31:57;6.53;;;4.50;;
2326;SDS011;1174;51.588;7.328;2022-08-01T06:34:24;10.40;;;5.30;;
2326;SDS011;1174;51.588;7.328;2022-08-01T06:36:51;6.37;;;4.60;;
2326;SDS011;1174;51.588;7.328;2022-08-01T06:39:18;7.23;;;5.20;;
2326;SDS011;1174;51.588;7.328;2022-08-01T06:41:45;8.97;;;4.93;;
2326;SDS011;1174;51.588;7.328;2022-08-01T06:44:12;8.90;;;5.83;;
2326;SDS011;1174;51.588;7.328;2022-08-01T06:46:40;8.90;;;5.13;;
2326;SDS011;1174;51.588;7.328;2022-08-01T06:49:07;6.40;;;4.20;;
2326;SDS011;1174;51.588;7.328;2022-08-01T06:51:34;9.13;;;5.07;;
2326;SDS011;1174;51.588;7.328;2022-08-01T06:54:00;5.97;;;4.60;;
2326;SDS011;1174;51.588;7.328;2022-08-01T06:56:27;6.70;;;4.50;;
2326;SDS011;1174;51.588;7.328;2022-08-01T06:58:54;9.83;;;5.60;;
2326;SDS011;1174;51.588;7.328;2022-08-01T07:01:25;9.27;;;5.07;;
2326;SDS011;1174;51.588;7.328;2022-08-01T07:03:54;8.40;;;5.50;;
2326;SDS011;1174;51.588;7.328;2022-08-01T07:06:21;9.63;;;4.47;;
2326;SDS011;1174;51.588;7.328;2022-08-01T07:08:48;7.10;;;4.80;;
2326;SDS011;1174;51.588;7.328;2022-08-01T07:11:15;6.97;;;4.90;;
2326;SDS011;1174;51.588;7.328;2022-08-01T07:13:42;12.93;;;6.27;;
2326;SDS011;1174;51.588;7.328;2022-08-01T07:16:10;8.27;;;4.63;;
2326;SDS011;1174;51.588;7.328;2022-08-01T07:21:21;5.50;;;4.30;;
2326;SDS011;1174;51.588;7.328;2022-08-01T07:23:48;8.97;;;5.60;;
2326;SDS011;1174;51.588;7.328;2022-08-01T07:26:15;9.20;;;5.87;;
2326;SDS011;1174;51.588;7.328;2022-08-01T07:28:42;9.83;;;7.20;;
2326;SDS011;1174;51.588;7.328;2022-08-01T07:31:09;7.33;;;5.10;;
2326;SDS011;1174;51.588;7.328;2022-08-01T07:33:36;6.80;;;5.23;;
2326;SDS011;1174;51.588;7.328;2022-08-01T07:36:03;5.13;;;4.10;;
2326;SDS011;1174;51.588;7.328;2022-08-01T07:38:31;8.00;;;6.40;;
2326;SDS011;1174;51.588;7.328;2022-08-01T07:40:58;4.70;;;3.60;;
2326;SDS011;1174;51.588;7.328;2022-08-01T07:43:25;19.73;;;5.37;;
2326;SDS011;1174;51.588;7.328;2022-08-01T07:45:52;5.57;;;4.67;;
2326;SDS011;1174;51.588;7.328;2022-08-01T07:48:18;6.07;;;3.93;;
2326;SDS011;1174;51.588;7.328;2022-08-01T07:50:48;5.80;;;3.97;;
2326;SDS011;1174;51.588;7.328;2022-08-01T07:53:15;3.07;;;2.67;;
2326;SDS011;1174;51.588;7.328;2022-08-01T07:55:44;4.63;;;3.13;;
2326;SDS011;1174;51.588;7.328;2022-08-01T07:58:11;6.20;;;4.13;;
2326;SDS011;1174;51.588;7.328;2022-08-01T08:00:38;6.30;;;4.57;;
2326;SDS011;1174;51.588;7.328;2022-08-01T08:03:04;8.53;;;4.50;;
2326;SDS011;1174;51.588;7.328;2022-08-01T08:05:31;6.53;;;4.17;;
2326;SDS011;1174;51.588;7.328;2022-08-01T08:08:00;4.10;;;3.57;;
2326;SDS011;1174;51.588;7.328;2022-08-01T08:10:27;4.57;;;2.70;;
2326;SDS011;1174;51.588;7.328;2022-08-01T08:12:55;4.60;;;3.90;;
2326;SDS011;1174;51.588;7.328;2022-08-01T08:15:22;5.00;;;4.50;;
2326;SDS011;1174;51.588;7.328;2022-08-01T08:17:48;9.90;;;5.90;;
2326;SDS011;1174;51.588;7.328;2022-08-01T08:20:15;7.27;;;6.03;;
2326;SDS011;1174;51.588;7.328;2022-08-01T08:22:42;6.80;;;5.83;;
2326;SDS011;1174;51.588;7.328;2022-08-01T08:25:09;7.27;;;5.67;;
2326;SDS011;1174;51.588;7.328;2022-08-01T08:27:36;6.73;;;4.80;;
2326;SDS011;1174;51.588;7.328;2022-08-01T08:30:05;4.90;;;4.13;;
2326;SDS011;1174;51.588;7.328;2022-08-01T08:32:33;6.40;;;3.03;;
2326;SDS011;1174;51.588;7.328;2022-08-01T08:35:00;14.73;;;4.17;;
2326;SDS011;1174;51.588;7.328;2022-08-01T08:37:27;3.40;;;3.10;;
2326;SDS011;1174;51.588;7.328;2022-08-01T08:39:54;3.30;;;3.00;;
2326;SDS011;1174;51.588;7.328;2022-08-01T08:42:21;4.20;;;3.20;;
2326;SDS011;1174;51.588;7.328;2022-08-01T08:44:48;4.90;;;2.90;;
2326;SDS011;1174;51.588;7.328;2022-08-01T08:47:16;2.73;;;2.10;;
2326;SDS011;1174;51.588;7.328;2022-08-01T08:49:45;4.47;;;2.90;;
2326;SDS011;1174;51.588;7.328;2022-08-01T08:52:12;1.60;;;1.50;;
2326;SDS011;1174;51.588;7.328;2022-08-01T08:54:41;2.20;;;1.57;;
2326;SDS011;1174;51.588;7.328;2022-08-01T08:57:08;1.70;;;1.20;;
2326;SDS011;1174;51.588;7.328;2022-08-01T08:59:38;2.80;;;1.60;;
2326;SDS011;1174;51.588;7.328;2022-08-01T09:02:06;2.10;;;1.50;;
2326;SDS011;1174;51.588;7.328;2022-08-01T09:04:35;1.90;;;1.60;;
2326;SDS011;1174;51.588;7.328;2022-08-01T09:07:04;2.10;;;1.40;;
2326;SDS011;1174;51.588;7.328;2022-08-01T09:09:31;1.50;;;1.30;;
2326;SDS011;1174;51.588;7.328;2022-08-01T09:11:58;2.83;;;1.30;;
2326;SDS011;1174;51.588;7.328;2022-08-01T09:14:25;2.37;;;1.20;;
2326;SDS011;1174;51.588;7.328;2022-08-01T09:16:59;1.97;;;1.30;;
2326;SDS011;1174;51.588;7.328;2022-08-01T09:19:27;1.53;;;1.23;;
2326;SDS011;1174;51.588;7.328;2022-08-01T09:22:03;2.70;;;1.20;;
2326;SDS011;1174;51.588;7.328;2022-08-01T09:24:32;1.93;;;1.27;;
2326;SDS011;1174;51.588;7.328;2022-08-01T09:26:59;2.30;;;1.30;;
2326;SDS011;1174;51.588;7.328;2022-08-01T09:29:28;1.90;;;1.40;;
2326;SDS011;1174;51.588;7.328;2022-08-01T09:31:57;1.40;;;1.20;;
2326;SDS011;1174;51.588;7.328;2022-08-01T09:34:25;3.57;;;2.23;;
2326;SDS011;1174;51.588;7.328;2022-08-01T09:36:54;1.60;;;1.20;;
2326;SDS011;1174;51.588;7.328;2022-08-01T09:39:23;1.73;;;1.20;;
2326;SDS011;1174;51.588;7.328;2022-08-01T09:41:51;1.83;;;1.13;;
2326;SDS011;1174;51.588;7.328;2022-08-01T09:44:18;2.93;;;2.73;;
2326;SDS011;1174;51.588;7.328;2022-08-01T09:46:50;3.00;;;1.37;;
2326;SDS011;1174;51.588;7.328;2022-08-01T09:49:28;1.80;;;1.23;;
2326;SDS011;1174;51.588;7.328;2022-08-01T09:51:58;1.30;;;1.00;;
2326;SDS011;1174;51.588;7.328;2022-08-01T09:54:35;1.63;;;1.13;;
2326;SDS011;1174;51.588;7.328;2022-08-01T09:57:08;1.90;;;1.07;;
2326;SDS011;1174;51.588;7.328;2022-08-01T09:59:38;1.93;;;1.10;;
2326;SDS011;1174;51.588;7.328;2022-08-01T10:02:07;2.43;;;1.10;;
2326;SDS011;1174;51.588;7.328;2022-08-01T10:04:35;1.37;;;1.23;;
2326;SDS011;1174;51.588;7.328;2022-08-01T10:07:07;1.83;;;1.53;;
2326;SDS011;1174;51.588;7.328;2022-08-01T10:09:34;1.30;;;0.93;;
2326;SDS011;1174;51.588;7.328;2022-08-01T10:12:03;6.13;;;4.40;;
2326;SDS011;1174;51.588;7.328;2022-08-01T10:14:30;1.50;;;1.20;;
2326;SDS011;1174;51.588;7.328;2022-08-01T10:16:58;1.47;;;1.00;;
2326;SDS011;1174;51.588;7.328;2022-08-01T10:19:27;4.37;;;1.57;;
2326;SDS011;1174;51.588;7.328;2022-08-01T10:21:56;2.40;;;1.07;;
2326;SDS011;1174;51.588;7.328;2022-08-01T10:24:25;1.30;;;0.90;;
2326;SDS011;1174;51.588;7.328;2022-08-01T10:26:55;1.20;;;0.90;;
2326;SDS011;1174;51.588;7.328;2022-08-01T10:29:30;1.10;;;0.80;;
2326;SDS011;1174;51.588;7.328;2022-08-01T10:32:03;1.27;;;0.80;;
2326;SDS011;1174;51.588;7.328;2022-08-01T10:34:31;1.67;;;1.23;;
2326;SDS011;1174;51.588;7.328;2022-08-01T10:37:00;3.83;;;1.10;;
2326;SDS011;1174;51.588;7.328;2022-08-01T10:39:29;1.20;;;1.00;;
2326;SDS011;1174;51.588;7.328;2022-08-01T10:41:57;1.37;;;1.10;;
2326;SDS011;1174;51.588;7.328;2022-08-01T10:44:25;4.53;;;1.40;;
2326;SDS011;1174;51.588;7.328;2022-08-01T10:47:09;2.13;;;1.27;;
2326;SDS011;1174;51.588;7.328;2022-08-01T10:49:40;1.70;;;1.30;;
2326;SDS011;1174;51.588;7.328;2022-08-01T10:52:13;1.67;;;1.13;;
2326;SDS011;1174;51.588;7.328;2022-08-01T10:54:42;1.47;;;1.00;;
2326;SDS011;1174;51.588;7.328;2022-08-01T10:57:09;1.20;;;0.93;;
2326;SDS011;1174;51.588;7.328;2022-08-01T10:59:47;2.90;;;1.23;;
2326;SDS011;1174;51.588;7.328;2022-08-01T11:02:24;3.20;;;2.17;;
2326;SDS011;1174;51.588;7.328;2022-08-01T11:04:54;1.33;;;0.90;;
2326;SDS011;1174;51.588;7.328;2022-08-01T11:07:24;1.20;;;0.97;;
2326;SDS011;1174;51.588;7.328;2022-08-01T11:10:10;2.23;;;1.00;;
2326;SDS011;1174;51.588;7.328;2022-08-01T11:12:45;1.20;;;0.87;;
2326;SDS011;1174;51.588;7.328;2022-08-01T11:15:24;1.20;;;0.90;;
2326;SDS011;1174;51.588;7.328;2022-08-01T11:17:52;1.13;;;0.80;;
2326;SDS011;1174;51.588;7.328;2022-08-01T11:20:20;1.20;;;0.93;;
2326;SDS011;1174;51.588;7.328;2022-08-01T11:28:34;1.83;;;0.90;;
2326;SDS011;1174;51.588;7.328;2022-08-01T11:33:54;1.10;;;0.70;;
2326;SDS011;1174;51.588;7.328;2022-08-01T11:36:21;1.10;;;0.80;;
2326;SDS011;1174;51.588;7.328;2022-08-01T11:38:49;1.70;;;0.80;;
2326;SDS011;1174;51.588;7.328;2022-08-01T11:41:32;1.00;;;0.70;;
2326;SDS011;1174;51.588;7.328;2022-08-01T11:44:01;1.10;;;0.83;;
2326;SDS011;1174;51.588;7.328;2022-08-01T11:46:45;1.83;;;1.00;;
2326;SDS011;1174;51.588;7.328;2022-08-01T11:49:23;1.47;;;0.90;;
2326;SDS011;1174;51.588;7.328;2022-08-01T11:51:56;1.50;;;0.90;;
2326;SDS011;1174;51.588;7.328;2022-08-01T11:54:24;1.10;;;0.70;;
2326;SDS011;1174;51.588;7.328;2022-08-01T11:56:56;1.00;;;0.70;;
2326;SDS011;1174;51.588;7.328;2022-08-01T11:59:24;1.10;;;0.80;;
2326;SDS011;1174;51.588;7.328;2022-08-01T12:01:51;1.20;;;0.80;;
2326;SDS011;1174;51.588;7.328;2022-08-01T12:04:18;1.20;;;0.90;;
2326;SDS011;1174;51.588;7.328;2022-08-01T12:06:45;1.23;;;1.03;;
2326;SDS011;1174;51.588;7.328;2022-08-01T12:09:15;1.17;;;0.83;;
2326;SDS011;1174;51.588;7.328;2022-08-01T12:11:44;1.40;;;1.00;;
2326;SDS011;1174;51.588;7.328;2022-08-01T12:14:16;2.57;;;1.00;;
2326;SDS011;1174;51.588;7.328;2022-08-01T12:16:49;1.20;;;0.97;;
2326;SDS011;1174;51.588;7.328;2022-08-01T12:19:18;1.40;;;1.20;;
2326;SDS011;1174;51.588;7.328;2022-08-01T12:22:09;9.77;;;1.40;;
2326;SDS011;1174;51.588;7.328;2022-08-01T12:24:40;1.10;;;0.80;;
2326;SDS011;1174;51.588;7.328;2022-08-01T12:27:09;1.40;;;1.00;;
2326;SDS011;1174;51.588;7.328;2022-08-01T12:29:39;1.60;;;1.13;;
2326;SDS011;1174;51.588;7.328;2022-08-01T12:32:23;1.30;;;1.10;;
2326;SDS011;1174;51.588;7.328;2022-08-01T12:34:52;2.77;;;1.00;;
2326;SDS011;1174;51.588;7.328;2022-08-01T12:37:20;1.40;;;1.00;;
2326;SDS011;1174;51.588;7.328;2022-08-01T12:39:47;1.33;;;0.93;;
2326;SDS011;1174;51.588;7.328;2022-08-01T12:42:14;1.20;;;0.90;;
2326;SDS011;1174;51.588;7.328;2022-08-01T12:44:43;2.03;;;1.00;;
2326;SDS011;1174;51.588;7.328;2022-08-01T12:47:12;3.33;;;1.10;;
2326;SDS011;1174;51.588;7.328;2022-08-01T12:49:40;9.13;;;1.87;;
2326;SDS011;1174;51.588;7.328;2022-08-01T12:52:09;2.07;;;1.10;;
2326;SDS011;1174;51.588;7.328;2022-08-01T12:57:33;5.63;;;1.33;;
2326;SDS011;1174;51.588;7.328;2022-08-01T13:00:09;1.47;;;1.20;;
2326;SDS011;1174;51.588;7.328;2022-08-01T13:02:42;1.47;;;1.20;;
2326;SDS011;1174;51.588;7.328;2022-08-01T13:05:10;1.70;;;1.07;;
2326;SDS011;1174;51.588;7.328;2022-08-01T13:07:41;1.37;;;1.17;;
2326;SDS011;1174;51.588;7.328;2022-08-01T13:10:10;2.33;;;1.30;;
2326;SDS011;1174;51.588;7.328;2022-08-01T13:12:38;7.10;;;2.30;;
2326;SDS011;1174;51.588;7.328;2022-08-01T13:15:17;1.30;;;0.90;;
2326;SDS011;1174;51.588;7.328;2022-08-01T13:17:45;1.33;;;1.00;;
2326;SDS011;1174;51.588;7.328;2022-08-01T13:20:20;2.60;;;1.30;;
2326;SDS011;1174;51.588;7.328;2022-08-01T13:22:51;1.43;;;1.20;;
2326;SDS011;1174;51.588;7.328;2022-08-01T13:25:18;2.60;;;1.50;;
2326;SDS011;1174;51.588;7.328;2022-08-01T13:27:45;1.47;;;1.10;;
2326;SDS011;1174;51.588;7.328;2022-08-01T13:30:13;1.23;;;0.93;;
2326;SDS011;1174;51.588;7.328;2022-08-01T13:32:42;2.13;;;1.23;;
2326;SDS011;1174;51.588;7.328;2022-08-01T13:35:10;1.40;;;1.00;;
2326;SDS011;1174;51.588;7.328;2022-08-01T13:37:39;3.07;;;1.07;;
2326;SDS011;1174;51.588;7.328;2022-08-01T13:40:07;2.13;;;1.17;;
2326;SDS011;1174;51.588;7.328;2022-08-01T13:42:36;2.37;;;1.00;;
2326;SDS011;1174;51.588;7.328;2022-08-01T13:45:03;1.30;;;1.00;;
2326;SDS011;1174;51.588;7.328;2022-08-01T13:47:32;1.67;;;1.30;;
2326;SDS011;1174;51.588;7.328;2022-08-01T13:50:00;1.53;;;1.20;;
2326;SDS011;1174;51.588;7.328;2022-08-01T13:52:27;1.33;;;1.20;;
2326;SDS011;1174;51.588;7.328;2022-08-01T13:54:54;2.50;;;1.40;;
2326;SDS011;1174;51.588;7.328;2022-08-01T13:57:21;2.93;;;1.10;;
2326;SDS011;1174;51.588;7.328;2022-08-01T13:59:48;1.83;;;1.37;;
2326;SDS011;1174;51.588;7.328;2022-08-01T14:02:16;1.27;;;1.17;;
2326;SDS011;1174;51.588;7.328;2022-08-01T14:04:43;3.93;;;1.50;;
2326;SDS011;1174;51.588;7.328;2022-08-01T14:07:11;1.50;;;1.40;;
2326;SDS011;1174;51.588;7.328;2022-08-01T14:09:38;3.30;;;1.50;;
2326;SDS011;1174;51.588;7.328;2022-08-01T14:12:05;4.10;;;1.30;;
2326;SDS011;1174;51.588;7.328;2022-08-01T14:14:32;1.60;;;1.30;;
2326;SDS011;1174;51.588;7.328;2022-08-01T14:16:59;1.83;;;1.30;;
2326;SDS011;1174;51.588;7.328;2022-08-01T14:19:26;1.40;;;1.13;;
2326;SDS011;1174;51.588;7.328;2022-08-01T14:21:53;2.53;;;1.40;;
2326;SDS011;1174;51.588;7.328;2022-08-01T14:24:23;1.47;;;1.17;;
2326;SDS011;1174;51.588;7.328;2022-08-01T14:26:51;1.50;;;1.37;;
2326;SDS011;1174;51.588;7.328;2022-08-01T14:29:18;1.80;;;1.30;;
2326;SDS011;1174;51.588;7.328;2022-08-01T14:31:45;3.73;;;1.40;;
2326;SDS011;1174;51.588;7.328;2022-08-01T14:34:12;1.97;;;1.50;;
2326;SDS011;1174;51.588;7.328;2022-08-01T14:36:38;1.90;;;1.23;;
2326;SDS011;1174;51.588;7.328;2022-08-01T14:39:06;1.60;;;1.20;;
2326;SDS011;1174;51.588;7.328;2022-08-01T14:41:34;2.37;;;1.57;;
2326;SDS011;1174;51.588;7.328;2022-08-01T14:44:01;2.50;;;1.60;;
2326;SDS011;1174;51.588;7.328;2022-08-01T14:46:29;1.73;;;1.63;;
2326;SDS011;1174;51.588;7.328;2022-08-01T14:48:55;1.90;;;1.50;;
2326;SDS011;1174;51.588;7.328;2022-08-01T14:51:22;1.57;;;1.30;;
2326;SDS011;1174;51.588;7.328;2022-08-01T14:53:49;1.50;;;1.00;;
2326;SDS011;1174;51.588;7.328;2022-08-01T14:56:16;1.70;;;1.57;;
2326;SDS011;1174;51.588;7.328;2022-08-01T14:58:44;1.90;;;1.70;;
2326;SDS011;1174;51.588;7.328;2022-08-01T15:01:11;4.40;;;1.37;;
2326;SDS011;1174;51.588;7.328;2022-08-01T15:03:38;1.67;;;1.57;;
2326;SDS011;1174;51.588;7.328;2022-08-01T15:06:05;1.70;;;1.60;;
2326;SDS011;1174;51.588;7.328;2022-08-01T15:08:34;2.07;;;1.50;;
2326;SDS011;1174;51.588;7.328;2022-08-01T15:11:01;2.73;;;1.70;;
2326;SDS011;1174;51.588;7.328;2022-08-01T15:13:28;1.90;;;1.50;;
2326;SDS011;1174;51.588;7.328;2022-08-01T15:15:56;1.53;;;1.33;;
2326;SDS011;1174;51.588;7.328;2022-08-01T15:18:23;1.77;;;1.53;;
2326;SDS011;1174;51.588;7.328;2022-08-01T15:20:50;2.07;;;1.70;;
2326;SDS011;1174;51.588;7.328;2022-08-01T15:23:18;3.63;;;1.97;;
2326;SDS011;1174;51.588;7.328;2022-08-01T15:25:45;5.87;;;1.73;;
2326;SDS011;1174;51.588;7.328;2022-08-01T15:28:13;3.40;;;1.70;;
2326;SDS011;1174;51.588;7.328;2022-08-01T15:30:40;3.43;;;1.90;;
2326;SDS011;1174;51.588;7.328;2022-08-01T15:33:08;3.10;;;1.50;;